sensor_id;sensor_type;location;lat;lon;timestamp;P1;durP1;ratioP1;P2;durP2;ratioP2
23082;SDS011;11709;52.420;10.538;2023-03-23T00:23:48;126.62;;;34.30;;
23082;SDS011;11709;52.420;10.538;2023-03-23T01:40:33;127.95;;;36.50;;
23082;SDS011;11709;52.420;10.538;2023-03-23T03:10:04;6.67;;;5.55;;
23082;SDS011;11709;52.420;10.538;2023-03-23T03:14:30;117.42;;;35.00;;
23082;SDS011;11709;52.420;10.538;2023-03-23T03:18:37;69.20;;;50.67;;
23082;SDS011;11709;52.420;10.538;2023-03-23T03:22:37;58.05;;;54.53;;
23082;SDS011;11709;52.420;10.538;2023-03-23T03:30:55;23.85;;;22.55;;
23082;SDS011;11709;52.420;10.538;2023-03-23T03:35:02;616.15;;;281.75;;
23082;SDS011;11709;52.420;10.538;2023-03-23T03:39:05;297.23;;;267.85;;
23082;SDS011;11709;52.420;10.538;2023-03-23T03:43:09;400.17;;;365.33;;
23082;SDS011;11709;52.420;10.538;2023-03-23T03:47:12;403.93;;;368.73;;
23082;SDS011;11709;52.420;10.538;2023-03-23T03:51:15;196.63;;;153.35;;
23082;SDS011;11709;52.420;10.538;2023-03-23T03:55:17;0.00;;;0.00;;
23082;SDS011;11709;52.420;10.538;2023-03-23T03:59:20;0.00;;;0.00;;
23082;SDS011;11709;52.420;10.538;2023-03-23T04:03:22;0.00;;;0.00;;
23082;SDS011;11709;52.420;10.538;2023-03-23T04:07:24;0.00;;;0.00;;
23082;SDS011;11709;52.420;10.538;2023-03-23T04:11:28;0.00;;;0.00;;
23082;SDS011;11709;52.420;10.538;2023-03-23T04:15:31;0.00;;;0.00;;
23082;SDS011;11709;52.420;10.538;2023-03-23T04:19:34;0.00;;;0.00;;
23082;SDS011;11709;52.420;10.538;2023-03-23T04:23:37;0.00;;;0.00;;
23082;SDS011;11709;52.420;10.538;2023-03-23T04:27:40;0.00;;;0.00;;
23082;SDS011;11709;52.420;10.538;2023-03-23T04:31:47;0.00;;;0.00;;
23082;SDS011;11709;52.420;10.538;2023-03-23T04:35:51;0.00;;;0.00;;
23082;SDS011;11709;52.420;10.538;2023-03-23T04:39:58;0.00;;;0.00;;
23082;SDS011;11709;52.420;10.538;2023-03-23T04:44:06;0.00;;;0.00;;
23082;SDS011;11709;52.420;10.538;2023-03-23T04:48:08;0.00;;;0.00;;
23082;SDS011;11709;52.420;10.538;2023-03-23T04:52:12;0.00;;;0.00;;
23082;SDS011;11709;52.420;10.538;2023-03-23T04:56:14;0.00;;;0.00;;
23082;SDS011;11709;52.420;10.538;2023-03-23T05:00:17;0.00;;;0.00;;
23082;SDS011;11709;52.420;10.538;2023-03-23T05:04:22;0.00;;;0.00;;
23082;SDS011;11709;52.420;10.538;2023-03-23T05:08:25;0.00;;;0.00;;
23082;SDS011;11709;52.420;10.538;2023-03-23T05:12:28;0.00;;;0.00;;
23082;SDS011;11709;52.420;10.538;2023-03-23T05:16:31;0.00;;;0.00;;
23082;SDS011;11709;52.420;10.538;2023-03-23T05:20:32;0.00;;;0.00;;
23082;SDS011;11709;52.420;10.538;2023-03-23T05:24:35;0.00;;;0.00;;
23082;SDS011;11709;52.420;10.538;2023-03-23T05:28:38;0.00;;;0.00;;
23082;SDS011;11709;52.420;10.538;2023-03-23T05:32:42;0.00;;;0.00;;
23082;SDS011;11709;52.420;10.538;2023-03-23T05:36:46;0.00;;;0.00;;
23082;SDS011;11709;52.420;10.538;2023-03-23T05:40:48;0.00;;;0.00;;
23082;SDS011;11709;52.420;10.538;2023-03-23T05:44:50;0.00;;;0.00;;
23082;SDS011;11709;52.420;10.538;2023-03-23T05:48:53;0.00;;;0.00;;
23082;SDS011;11709;52.420;10.538;2023-03-23T05:52:54;0.00;;;0.00;;
23082;SDS011;11709;52.420;10.538;2023-03-23T05:56:57;0.00;;;0.00;;
23082;SDS011;11709;52.420;10.538;2023-03-23T06:01:00;0.00;;;0.00;;
23082;SDS011;11709;52.420;10.538;2023-03-23T06:05:03;0.00;;;0.00;;
23082;SDS011;11709;52.420;10.538;2023-03-23T06:09:05;0.00;;;0.00;;
23082;SDS011;11709;52.420;10.538;2023-03-23T06:13:08;0.00;;;0.00;;
23082;SDS011;11709;52.420;10.538;2023-03-23T06:17:10;0.00;;;0.00;;
23082;SDS011;11709;52.420;10.538;2023-03-23T06:21:12;0.00;;;0.00;;
23082;SDS011;11709;52.420;10.538;2023-03-23T06:25:15;0.00;;;0.00;;
23082;SDS011;11709;52.420;10.538;2023-03-23T06:29:17;0.00;;;0.00;;
23082;SDS011;11709;52.420;10.538;2023-03-23T06:33:19;0.00;;;0.00;;
23082;SDS011;11709;52.420;10.538;2023-03-23T06:37:22;0.00;;;0.00;;
23082;SDS011;11709;52.420;10.538;2023-03-23T06:41:25;0.00;;;0.00;;
23082;SDS011;11709;52.420;10.538;2023-03-23T06:45:27;0.00;;;0.00;;
23082;SDS011;11709;52.420;10.538;2023-03-23T06:49:30;0.00;;;0.00;;
23082;SDS011;11709;52.420;10.538;2023-03-23T06:53:32;0.00;;;0.00;;
23082;SDS011;11709;52.420;10.538;2023-03-23T06:57:35;0.00;;;0.00;;
23082;SDS011;11709;52.420;10.538;2023-03-23T07:01:38;0.00;;;0.00;;
23082;SDS011;11709;52.420;10.538;2023-03-23T07:05:40;0.00;;;0.00;;
23082;SDS011;11709;52.420;10.538;2023-03-23T07:09:42;355.30;;;314.30;;
23082;SDS011;11709;52.420;10.538;2023-03-23T07:13:44;235.02;;;212.95;;
23082;SDS011;11709;52.420;10.538;2023-03-23T07:17:47;485.07;;;447.83;;
23082;SDS011;11709;52.420;10.538;2023-03-23T07:21:49;537.30;;;496.67;;
23082;SDS011;11709;52.420;10.538;2023-03-23T07:25:52;289.57;;;259.73;;
23082;SDS011;11709;52.420;10.538;2023-03-23T07:29:55;361.03;;;331.40;;
23082;SDS011;11709;52.420;10.538;2023-03-23T07:33:58;0.00;;;0.00;;
23082;SDS011;11709;52.420;10.538;2023-03-23T07:38:02;0.00;;;0.00;;
23082;SDS011;11709;52.420;10.538;2023-03-23T07:42:06;0.00;;;0.00;;
23082;SDS011;11709;52.420;10.538;2023-03-23T07:46:08;0.00;;;0.00;;
23082;SDS011;11709;52.420;10.538;2023-03-23T07:50:11;0.00;;;0.00;;
23082;SDS011;11709;52.420;10.538;2023-03-23T07:54:16;0.00;;;0.00;;
23082;SDS011;11709;52.420;10.538;2023-03-23T07:58:18;0.00;;;0.00;;
23082;SDS011;11709;52.420;10.538;2023-03-23T08:02:21;0.00;;;0.00;;
23082;SDS011;11709;52.420;10.538;2023-03-23T08:06:23;0.00;;;0.00;;
23082;SDS011;11709;52.420;10.538;2023-03-23T08:10:25;0.00;;;0.00;;
23082;SDS011;11709;52.420;10.538;2023-03-23T08:14:28;0.00;;;0.00;;
23082;SDS011;11709;52.420;10.538;2023-03-23T08:18:31;0.00;;;0.00;;
23082;SDS011;11709;52.420;10.538;2023-03-23T08:22:35;0.00;;;0.00;;
23082;SDS011;11709;52.420;10.538;2023-03-23T08:26:37;0.00;;;0.00;;
23082;SDS011;11709;52.420;10.538;2023-03-23T08:30:40;0.00;;;0.00;;
23082;SDS011;11709;52.420;10.538;2023-03-23T08:34:43;0.00;;;0.00;;
23082;SDS011;11709;52.420;10.538;2023-03-23T08:38:45;0.00;;;0.00;;
23082;SDS011;11709;52.420;10.538;2023-03-23T08:42:47;0.00;;;0.00;;
23082;SDS011;11709;52.420;10.538;2023-03-23T08:46:50;0.00;;;0.00;;
23082;SDS011;11709;52.420;10.538;2023-03-23T08:50:53;0.00;;;0.00;;
23082;SDS011;11709;52.420;10.538;2023-03-23T08:54:56;0.00;;;0.00;;
23082;SDS011;11709;52.420;10.538;2023-03-23T08:58:59;0.00;;;0.00;;
23082;SDS011;11709;52.420;10.538;2023-03-23T09:03:02;0.00;;;0.00;;
23082;SDS011;11709;52.420;10.538;2023-03-23T09:07:05;0.00;;;0.00;;
23082;SDS011;11709;52.420;10.538;2023-03-23T09:11:09;0.00;;;0.00;;
23082;SDS011;11709;52.420;10.538;2023-03-23T09:15:15;0.00;;;0.00;;
23082;SDS011;11709;52.420;10.538;2023-03-23T09:19:16;0.00;;;0.00;;
23082;SDS011;11709;52.420;10.538;2023-03-23T09:23:19;0.00;;;0.00;;
23082;SDS011;11709;52.420;10.538;2023-03-23T09:27:21;0.00;;;0.00;;
23082;SDS011;11709;52.420;10.538;2023-03-23T09:31:24;0.00;;;0.00;;
23082;SDS011;11709;52.420;10.538;2023-03-23T09:35:28;0.00;;;0.00;;
23082;SDS011;11709;52.420;10.538;2023-03-23T09:39:30;0.00;;;0.00;;
23082;SDS011;11709;52.420;10.538;2023-03-23T09:47:56;0.00;;;0.00;;
23082;SDS011;11709;52.420;10.538;2023-03-23T09:51:54;0.00;;;0.00;;
23082;SDS011;11709;52.420;10.538;2023-03-23T09:55:56;0.00;;;0.00;;
23082;SDS011;11709;52.420;10.538;2023-03-23T10:00:19;0.00;;;0.00;;
23082;SDS011;11709;52.420;10.538;2023-03-23T10:08:33;0.00;;;0.00;;
23082;SDS011;11709;52.420;10.538;2023-03-23T10:12:36;0.00;;;0.00;;
23082;SDS011;11709;52.420;10.538;2023-03-23T10:16:55;0.00;;;0.00;;
23082;SDS011;11709;52.420;10.538;2023-03-23T10:20:56;0.00;;;0.00;;
23082;SDS011;11709;52.420;10.538;2023-03-23T10:29:20;0.00;;;0.00;;
23082;SDS011;11709;52.420;10.538;2023-03-23T10:33:24;0.00;;;0.00;;
23082;SDS011;11709;52.420;10.538;2023-03-23T10:37:31;0.00;;;0.00;;
23082;SDS011;11709;52.420;10.538;2023-03-23T10:41:35;0.00;;;0.00;;
23082;SDS011;11709;52.420;10.538;2023-03-23T10:45:37;0.00;;;0.00;;
23082;SDS011;11709;52.420;10.538;2023-03-23T10:49:41;0.00;;;0.00;;
23082;SDS011;11709;52.420;10.538;2023-03-23T10:53:44;0.00;;;0.00;;
23082;SDS011;11709;52.420;10.538;2023-03-23T10:58:02;0.00;;;0.00;;
23082;SDS011;11709;52.420;10.538;2023-03-23T11:02:10;0.00;;;0.00;;
23082;SDS011;11709;52.420;10.538;2023-03-23T11:06:09;0.00;;;0.00;;
23082;SDS011;11709;52.420;10.538;2023-03-23T11:10:16;0.00;;;0.00;;
23082;SDS011;11709;52.420;10.538;2023-03-23T11:18:24;0.00;;;0.00;;
23082;SDS011;11709;52.420;10.538;2023-03-23T11:26:34;0.00;;;0.00;;
23082;SDS011;11709;52.420;10.538;2023-03-23T11:30:39;0.00;;;0.00;;
23082;SDS011;11709;52.420;10.538;2023-03-23T11:34:47;0.00;;;0.00;;
23082;SDS011;11709;52.420;10.538;2023-03-23T11:38:45;0.00;;;0.00;;
23082;SDS011;11709;52.420;10.538;2023-03-23T11:42:49;0.00;;;0.00;;
23082;SDS011;11709;52.420;10.538;2023-03-23T11:55:35;0.00;;;0.00;;
23082;SDS011;11709;52.420;10.538;2023-03-23T11:59:36;0.00;;;0.00;;
23082;SDS011;11709;52.420;10.538;2023-03-23T12:12:16;0.00;;;0.00;;
23082;SDS011;11709;52.420;10.538;2023-03-23T12:16:25;0.00;;;0.00;;
23082;SDS011;11709;52.420;10.538;2023-03-23T12:20:31;0.00;;;0.00;;
23082;SDS011;11709;52.420;10.538;2023-03-23T12:29:05;0.00;;;0.00;;
23082;SDS011;11709;52.420;10.538;2023-03-23T12:41:44;0.00;;;0.00;;
23082;SDS011;11709;52.420;10.538;2023-03-23T12:50:07;0.00;;;0.00;;
23082;SDS011;11709;52.420;10.538;2023-03-23T12:54:15;0.00;;;0.00;;
23082;SDS011;11709;52.420;10.538;2023-03-23T12:58:17;0.00;;;0.00;;
23082;SDS011;11709;52.420;10.538;2023-03-23T13:02:24;0.00;;;0.00;;
23082;SDS011;11709;52.420;10.538;2023-03-23T13:06:32;0.00;;;0.00;;
23082;SDS011;11709;52.420;10.538;2023-03-23T13:10:48;0.00;;;0.00;;
23082;SDS011;11709;52.420;10.538;2023-03-23T13:15:37;0.00;;;0.00;;
23082;SDS011;11709;52.420;10.538;2023-03-23T13:19:06;0.00;;;0.00;;
23082;SDS011;11709;52.420;10.538;2023-03-23T13:23:25;0.00;;;0.00;;
23082;SDS011;11709;52.420;10.538;2023-03-23T13:27:26;0.00;;;0.00;;
23082;SDS011;11709;52.420;10.538;2023-03-23T13:31:33;0.00;;;0.00;;
23082;SDS011;11709;52.420;10.538;2023-03-23T13:35:39;0.00;;;0.00;;
23082;SDS011;11709;52.420;10.538;2023-03-23T13:39:53;0.00;;;0.00;;
23082;SDS011;11709;52.420;10.538;2023-03-23T13:44:17;0.00;;;0.00;;
23082;SDS011;11709;52.420;10.538;2023-03-23T13:48:20;0.00;;;0.00;;
23082;SDS011;11709;52.420;10.538;2023-03-23T13:56:57;0.00;;;0.00;;
23082;SDS011;11709;52.420;10.538;2023-03-23T14:01:10;0.00;;;0.00;;
23082;SDS011;11709;52.420;10.538;2023-03-23T14:06:02;0.00;;;0.00;;
23082;SDS011;11709;52.420;10.538;2023-03-23T14:09:26;0.00;;;0.00;;
23082;SDS011;11709;52.420;10.538;2023-03-23T14:13:29;0.00;;;0.00;;
23082;SDS011;11709;52.420;10.538;2023-03-23T14:17:43;0.00;;;0.00;;
23082;SDS011;11709;52.420;10.538;2023-03-23T14:21:42;0.00;;;0.00;;
23082;SDS011;11709;52.420;10.538;2023-03-23T14:26:00;0.00;;;0.00;;
23082;SDS011;11709;52.420;10.538;2023-03-23T14:30:14;0.00;;;0.00;;
23082;SDS011;11709;52.420;10.538;2023-03-23T14:34:18;0.00;;;0.00;;
23082;SDS011;11709;52.420;10.538;2023-03-23T14:38:21;0.00;;;0.00;;
23082;SDS011;11709;52.420;10.538;2023-03-23T14:42:29;0.00;;;0.00;;
23082;SDS011;11709;52.420;10.538;2023-03-23T14:46:32;0.00;;;0.00;;
23082;SDS011;11709;52.420;10.538;2023-03-23T14:50:38;0.00;;;0.00;;
23082;SDS011;11709;52.420;10.538;2023-03-23T14:54:41;0.00;;;0.00;;
23082;SDS011;11709;52.420;10.538;2023-03-23T14:58:49;0.00;;;0.00;;
23082;SDS011;11709;52.420;10.538;2023-03-23T15:02:49;0.00;;;0.00;;
23082;SDS011;11709;52.420;10.538;2023-03-23T15:06:53;0.00;;;0.00;;
23082;SDS011;11709;52.420;10.538;2023-03-23T15:10:57;0.00;;;0.00;;
23082;SDS011;11709;52.420;10.538;2023-03-23T15:15:04;0.00;;;0.00;;
23082;SDS011;11709;52.420;10.538;2023-03-23T15:19:16;0.00;;;0.00;;
23082;SDS011;11709;52.420;10.538;2023-03-23T15:23:28;0.00;;;0.00;;
23082;SDS011;11709;52.420;10.538;2023-03-23T15:27:31;0.00;;;0.00;;
23082;SDS011;11709;52.420;10.538;2023-03-23T15:31:44;0.00;;;0.00;;
23082;SDS011;11709;52.420;10.538;2023-03-23T15:35:50;0.00;;;0.00;;
23082;SDS011;11709;52.420;10.538;2023-03-23T15:39:49;0.00;;;0.00;;
23082;SDS011;11709;52.420;10.538;2023-03-23T15:43:57;0.00;;;0.00;;
23082;SDS011;11709;52.420;10.538;2023-03-23T15:48:22;0.00;;;0.00;;
23082;SDS011;11709;52.420;10.538;2023-03-23T15:52:12;0.00;;;0.00;;
23082;SDS011;11709;52.420;10.538;2023-03-23T15:56:16;0.00;;;0.00;;
23082;SDS011;11709;52.420;10.538;2023-03-23T16:00:19;0.00;;;0.00;;
23082;SDS011;11709;52.420;10.538;2023-03-23T16:04:24;0.00;;;0.00;;
23082;SDS011;11709;52.420;10.538;2023-03-23T16:08:28;0.00;;;0.00;;
23082;SDS011;11709;52.420;10.538;2023-03-23T16:12:30;0.00;;;0.00;;
23082;SDS011;11709;52.420;10.538;2023-03-23T16:16:41;0.00;;;0.00;;
23082;SDS011;11709;52.420;10.538;2023-03-23T16:20:41;0.00;;;0.00;;
23082;SDS011;11709;52.420;10.538;2023-03-23T16:24:44;0.00;;;0.00;;
23082;SDS011;11709;52.420;10.538;2023-03-23T16:28:46;0.00;;;0.00;;
23082;SDS011;11709;52.420;10.538;2023-03-23T16:32:48;0.00;;;0.00;;
23082;SDS011;11709;52.420;10.538;2023-03-23T16:36:51;0.00;;;0.00;;
23082;SDS011;11709;52.420;10.538;2023-03-23T16:40:53;0.00;;;0.00;;
23082;SDS011;11709;52.420;10.538;2023-03-23T16:44:57;0.00;;;0.00;;
23082;SDS011;11709;52.420;10.538;2023-03-23T16:48:59;0.00;;;0.00;;
23082;SDS011;11709;52.420;10.538;2023-03-23T16:53:02;13.97;;;9.80;;
23082;SDS011;11709;52.420;10.538;2023-03-23T16:57:05;0.00;;;0.00;;
23082;SDS011;11709;52.420;10.538;2023-03-23T17:01:07;0.00;;;0.00;;
23082;SDS011;11709;52.420;10.538;2023-03-23T17:05:10;0.00;;;0.00;;
23082;SDS011;11709;52.420;10.538;2023-03-23T17:09:12;0.00;;;0.00;;
23082;SDS011;11709;52.420;10.538;2023-03-23T17:13:14;0.00;;;0.00;;
23082;SDS011;11709;52.420;10.538;2023-03-23T17:17:17;0.00;;;0.00;;
23082;SDS011;11709;52.420;10.538;2023-03-23T17:21:20;0.00;;;0.00;;
23082;SDS011;11709;52.420;10.538;2023-03-23T17:25:24;0.00;;;0.00;;
23082;SDS011;11709;52.420;10.538;2023-03-23T17:29:28;0.00;;;0.00;;
23082;SDS011;11709;52.420;10.538;2023-03-23T17:33:30;0.00;;;0.00;;
23082;SDS011;11709;52.420;10.538;2023-03-23T17:37:33;0.00;;;0.00;;
23082;SDS011;11709;52.420;10.538;2023-03-23T17:41:35;0.00;;;0.00;;
23082;SDS011;11709;52.420;10.538;2023-03-23T17:45:39;0.00;;;0.00;;
23082;SDS011;11709;52.420;10.538;2023-03-23T17:49:42;0.00;;;0.00;;
23082;SDS011;11709;52.420;10.538;2023-03-23T17:53:43;0.00;;;0.00;;
23082;SDS011;11709;52.420;10.538;2023-03-23T17:57:48;0.00;;;0.00;;
23082;SDS011;11709;52.420;10.538;2023-03-23T18:01:51;0.00;;;0.00;;
23082;SDS011;11709;52.420;10.538;2023-03-23T18:05:58;0.00;;;0.00;;
23082;SDS011;11709;52.420;10.538;2023-03-23T18:10:01;0.00;;;0.00;;
23082;SDS011;11709;52.420;10.538;2023-03-23T18:14:03;0.00;;;0.00;;
23082;SDS011;11709;52.420;10.538;2023-03-23T18:18:06;0.00;;;0.00;;
23082;SDS011;11709;52.420;10.538;2023-03-23T18:22:08;0.00;;;0.00;;
23082;SDS011;11709;52.420;10.538;2023-03-23T18:26:11;0.00;;;0.00;;
23082;SDS011;11709;52.420;10.538;2023-03-23T18:30:14;0.00;;;0.00;;
23082;SDS011;11709;52.420;10.538;2023-03-23T18:34:16;0.00;;;0.00;;
23082;SDS011;11709;52.420;10.538;2023-03-23T18:38:18;0.00;;;0.00;;
23082;SDS011;11709;52.420;10.538;2023-03-23T18:42:20;0.00;;;0.00;;
23082;SDS011;11709;52.420;10.538;2023-03-23T18:46:23;0.00;;;0.00;;
23082;SDS011;11709;52.420;10.538;2023-03-23T18:50:26;0.00;;;0.00;;
23082;SDS011;11709;52.420;10.538;2023-03-23T18:54:29;0.00;;;0.00;;
23082;SDS011;11709;52.420;10.538;2023-03-23T18:58:33;0.00;;;0.00;;
23082;SDS011;11709;52.420;10.538;2023-03-23T19:02:35;0.00;;;0.00;;
23082;SDS011;11709;52.420;10.538;2023-03-23T19:06:39;0.00;;;0.00;;
23082;SDS011;11709;52.420;10.538;2023-03-23T19:10:41;0.00;;;0.00;;
23082;SDS011;11709;52.420;10.538;2023-03-23T19:14:44;0.00;;;0.00;;
23082;SDS011;11709;52.420;10.538;2023-03-23T19:18:46;0.00;;;0.00;;
23082;SDS011;11709;52.420;10.538;2023-03-23T19:22:49;0.00;;;0.00;;
23082;SDS011;11709;52.420;10.538;2023-03-23T19:26:52;0.00;;;0.00;;
23082;SDS011;11709;52.420;10.538;2023-03-23T19:30:55;0.00;;;0.00;;
23082;SDS011;11709;52.420;10.538;2023-03-23T19:34:57;0.00;;;0.00;;
23082;SDS011;11709;52.420;10.538;2023-03-23T19:39:00;0.00;;;0.00;;
23082;SDS011;11709;52.420;10.538;2023-03-23T19:43:04;0.00;;;0.00;;
23082;SDS011;11709;52.420;10.538;2023-03-23T19:47:06;0.00;;;0.00;;
23082;SDS011;11709;52.420;10.538;2023-03-23T19:51:10;0.00;;;0.00;;
23082;SDS011;11709;52.420;10.538;2023-03-23T19:55:12;0.00;;;0.00;;
23082;SDS011;11709;52.420;10.538;2023-03-23T19:59:15;0.00;;;0.00;;
23082;SDS011;11709;52.420;10.538;2023-03-23T20:03:17;0.00;;;0.00;;
23082;SDS011;11709;52.420;10.538;2023-03-23T20:07:21;0.00;;;0.00;;
23082;SDS011;11709;52.420;10.538;2023-03-23T20:11:23;0.00;;;0.00;;
23082;SDS011;11709;52.420;10.538;2023-03-23T20:15:26;0.00;;;0.00;;
23082;SDS011;11709;52.420;10.538;2023-03-23T20:19:29;0.00;;;0.00;;
23082;SDS011;11709;52.420;10.538;2023-03-23T20:23:30;0.00;;;0.00;;
23082;SDS011;11709;52.420;10.538;2023-03-23T20:27:34;0.00;;;0.00;;
23082;SDS011;11709;52.420;10.538;2023-03-23T20:31:38;0.00;;;0.00;;
23082;SDS011;11709;52.420;10.538;2023-03-23T20:35:40;0.00;;;0.00;;
23082;SDS011;11709;52.420;10.538;2023-03-23T20:39:43;0.00;;;0.00;;
23082;SDS011;11709;52.420;10.538;2023-03-23T20:43:46;0.00;;;0.00;;
23082;SDS011;11709;52.420;10.538;2023-03-23T20:47:48;0.00;;;0.00;;
23082;SDS011;11709;52.420;10.538;2023-03-23T20:51:50;0.00;;;0.00;;
23082;SDS011;11709;52.420;10.538;2023-03-23T20:55:54;0.00;;;0.00;;
23082;SDS011;11709;52.420;10.538;2023-03-23T20:59:58;0.00;;;0.00;;
23082;SDS011;11709;52.420;10.538;2023-03-23T21:04:01;0.00;;;0.00;;
23082;SDS011;11709;52.420;10.538;2023-03-23T21:08:04;0.00;;;0.00;;
23082;SDS011;11709;52.420;10.538;2023-03-23T21:12:07;0.00;;;0.00;;
23082;SDS011;11709;52.420;10.538;2023-03-23T21:16:10;0.00;;;0.00;;
23082;SDS011;11709;52.420;10.538;2023-03-23T21:20:14;0.00;;;0.00;;
23082;SDS011;11709;52.420;10.538;2023-03-23T21:24:15;0.00;;;0.00;;
23082;SDS011;11709;52.420;10.538;2023-03-23T21:28:18;0.00;;;0.00;;
23082;SDS011;11709;52.420;10.538;2023-03-23T21:32:21;0.00;;;0.00;;
23082;SDS011;11709;52.420;10.538;2023-03-23T21:36:24;0.00;;;0.00;;
23082;SDS011;11709;52.420;10.538;2023-03-23T21:40:27;0.00;;;0.00;;
23082;SDS011;11709;52.420;10.538;2023-03-23T21:44:29;0.00;;;0.00;;
23082;SDS011;11709;52.420;10.538;2023-03-23T21:48:34;0.00;;;0.00;;
23082;SDS011;11709;52.420;10.538;2023-03-23T21:52:38;0.00;;;0.00;;
23082;SDS011;11709;52.420;10.538;2023-03-23T21:56:42;0.00;;;0.00;;
23082;SDS011;11709;52.420;10.538;2023-03-23T22:00:45;0.00;;;0.00;;
23082;SDS011;11709;52.420;10.538;2023-03-23T22:04:48;0.00;;;0.00;;
23082;SDS011;11709;52.420;10.538;2023-03-23T22:08:52;0.00;;;0.00;;
23082;SDS011;11709;52.420;10.538;2023-03-23T22:12:55;0.00;;;0.00;;
23082;SDS011;11709;52.420;10.538;2023-03-23T22:16:57;0.00;;;0.00;;
23082;SDS011;11709;52.420;10.538;2023-03-23T22:21:00;0.00;;;0.00;;
23082;SDS011;11709;52.420;10.538;2023-03-23T22:25:03;0.00;;;0.00;;
23082;SDS011;11709;52.420;10.538;2023-03-23T22:29:05;0.00;;;0.00;;
23082;SDS011;11709;52.420;10.538;2023-03-23T22:33:09;0.00;;;0.00;;
23082;SDS011;11709;52.420;10.538;2023-03-23T22:37:13;0.00;;;0.00;;
23082;SDS011;11709;52.420;10.538;2023-03-23T22:41:20;0.00;;;0.00;;
23082;SDS011;11709;52.420;10.538;2023-03-23T22:45:25;0.00;;;0.00;;
23082;SDS011;11709;52.420;10.538;2023-03-23T22:49:28;0.00;;;0.00;;
23082;SDS011;11709;52.420;10.538;2023-03-23T22:53:30;0.00;;;0.00;;
23082;SDS011;11709;52.420;10.538;2023-03-23T22:57:32;0.00;;;0.00;;
23082;SDS011;11709;52.420;10.538;2023-03-23T23:01:36;0.00;;;0.00;;
23082;SDS011;11709;52.420;10.538;2023-03-23T23:05:41;0.00;;;0.00;;
23082;SDS011;11709;52.420;10.538;2023-03-23T23:09:46;0.00;;;0.00;;
23082;SDS011;11709;52.420;10.538;2023-03-23T23:13:48;0.00;;;0.00;;
23082;SDS011;11709;52.420;10.538;2023-03-23T23:17:52;0.00;;;0.00;;
23082;SDS011;11709;52.420;10.538;2023-03-23T23:21:54;0.00;;;0.00;;
23082;SDS011;11709;52.420;10.538;2023-03-23T23:25:57;0.00;;;0.00;;
23082;SDS011;11709;52.420;10.538;2023-03-23T23:29:59;0.00;;;0.00;;
23082;SDS011;11709;52.420;10.538;2023-03-23T23:34:02;0.00;;;0.00;;
23082;SDS011;11709;52.420;10.538;2023-03-23T23:38:05;0.00;;;0.00;;
23082;SDS011;11709;52.420;10.538;2023-03-23T23:42:12;0.00;;;0.00;;
23082;SDS011;11709;52.420;10.538;2023-03-23T23:46:14;0.00;;;0.00;;
23082;SDS011;11709;52.420;10.538;2023-03-23T23:50:17;0.00;;;0.00;;
23082;SDS011;11709;52.420;10.538;2023-03-23T23:54:20;0.00;;;0.00;;
23082;SDS011;11709;52.420;10.538;2023-03-23T23:58:23;0.00;;;0.00;;
